Time;durP1;ratioP1;P1;durP2;ratioP2;P2;SDS_P1;SDS_P2;PMS_P1;PMS_P2;Temp;Humidity;BMP_temperature;BMP_pressure;BME280_temperature;BME280_humidity;BME280_pressure;Samples;Min_cycle;Max_cycle;Signal;HPM_P1;HPM_P2
2022/08/08 00:00:49;;;;;;;;;;;22.80;45.30;;;;;;5081787;28;19919;-64
2022/08/08 00:03:18;;;;;;;;;;;22.80;45.30;;;;;;5082413;28;19969;-65
2022/08/08 00:05:49;;;;;;;;;;;22.80;45.30;;;;;;5098350;28;19920;-65
2022/08/08 00:08:17;;;;;;;;;;;22.80;45.30;;;;;;5089394;28;19924;-64
2022/08/08 00:10:47;;;;;;;;;;;22.80;45.30;;;;;;5092865;28;19924;-65
2022/08/08 00:13:17;;;;;;;;;;;22.80;45.30;;;;;;5094842;28;20015;-65
2022/08/08 00:15:46;;;;;;;;;;;22.80;45.30;;;;;;5079791;28;19959;-66
2022/08/08 00:18:20;;;;;;;;;;;22.80;45.30;;;;;;5082193;28;19924;-65
2022/08/08 00:20:49;;;;;;;;;;;22.80;45.30;;;;;;5111551;27;19924;-65
2022/08/08 00:23:18;;;;;;;;;;;22.80;45.30;;;;;;5099099;28;20060;-64
2022/08/08 00:25:46;;;;;;;;;;;22.80;46.00;;;;;;5098163;28;20193;-65
2022/08/08 00:28:15;;;;;;;;;;;22.80;45.30;;;;;;5099497;28;20345;-64
2022/08/08 00:30:43;;;;;;;;;;;22.80;45.30;;;;;;5081624;28;20015;-64
2022/08/08 00:33:11;;;;;;;;;;;22.80;45.40;;;;;;5101827;28;20331;-64
2022/08/08 00:35:46;;;;;;;;;;;22.80;45.40;;;;;;5100805;28;19984;-65
2022/08/08 00:38:30;;;;;;;;;;;22.80;45.30;;;;;;5097806;28;20377;-65
2022/08/08 00:41:12;;;;;;;;;;;22.80;45.40;;;;;;5080174;28;19967;-65
2022/08/08 00:44:03;;;;;;;;;;;22.80;45.40;;;;;;5095593;28;19924;-65
2022/08/08 00:46:45;;;;;;;;;;;22.80;45.40;;;;;;5095592;28;19924;-65
2022/08/08 00:49:27;;;;;;;;;;;22.80;45.40;;;;;;5095727;28;20285;-64
2022/08/08 00:52:04;;;;;;;;;;;22.80;45.40;;;;;;5096492;28;20290;-65
2022/08/08 00:54:50;;;;;;;;;;;22.80;45.40;;;;;;5082118;28;19926;-65
2022/08/08 00:57:39;;;;;;;;;;;22.80;45.40;;;;;;5098239;28;20442;-65
2022/08/08 01:00:09;;;;;;;;;;;22.70;45.40;;;;;;5113892;27;20006;-65
2022/08/08 01:02:57;;;;;;;;;;;22.80;45.40;;;;;;5113682;27;19977;-65
2022/08/08 01:05:32;;;;;;;;;;;22.80;45.50;;;;;;5096029;28;20319;-64
2022/08/08 01:08:18;;;;;;;;;;;22.80;45.50;;;;;;5086919;28;20251;-65
2022/08/08 01:11:02;;;;;;;;;;;22.80;45.50;;;;;;5115121;27;20010;-65
2022/08/08 01:13:43;;;;;;;;;;;22.80;45.50;;;;;;5099629;28;19920;-65
2022/08/08 01:16:34;;;;;;;;;;;22.80;45.50;;;;;;5094319;28;19923;-65
2022/08/08 01:19:22;;;;;;;;;;;22.80;45.50;;;;;;5098258;28;19924;-64
2022/08/08 01:21:56;;;;;;;;;;;22.70;45.50;;;;;;5079549;28;20364;-64
2022/08/08 01:24:36;;;;;;;;;;;22.80;45.50;;;;;;5080488;28;20431;-65
2022/08/08 01:27:18;;;;;;;;;;;22.80;45.60;;;;;;5101416;28;19950;-65
2022/08/08 01:29:50;;;;;;;;;;;22.70;45.40;;;;;;5079400;28;19966;-64
2022/08/08 01:32:35;;;;;;;;;;;22.70;45.50;;;;;;5099850;28;20249;-64
2022/08/08 01:35:06;;;;;;;;;;;22.70;45.50;;;;;;5090623;28;19920;-64
2022/08/08 01:37:49;;;;;;;;;;;22.70;45.50;;;;;;5099393;28;19967;-64
2022/08/08 01:40:19;;;;;;;;;;;22.70;45.50;;;;;;5088510;28;19966;-65
2022/08/08 01:42:47;;;;;;;;;;;22.70;45.60;;;;;;5083384;28;20014;-64
2022/08/08 01:45:21;;;;;;;;;;;22.70;45.50;;;;;;5092871;28;19920;-65
2022/08/08 01:47:51;;;;;;;;;;;22.70;45.50;;;;;;5091890;28;20377;-65
2022/08/08 01:50:22;;;;;;;;;;;22.70;45.50;;;;;;5078218;28;20311;-65
2022/08/08 01:52:52;;;;;;;;;;;22.70;45.50;;;;;;5099253;28;20444;-65
2022/08/08 01:55:27;;;;;;;;;;;22.70;45.60;;;;;;5098559;28;20317;-65
2022/08/08 01:57:58;;;;;;;;;;;22.70;45.50;;;;;;5108723;27;19920;-65
2022/08/08 02:00:26;;;;;;;;;;;22.70;45.60;;;;;;5078064;28;19962;-65
2022/08/08 02:03:07;;;;;;;;;;;22.70;45.60;;;;;;5078251;28;19952;-65
2022/08/08 02:05:39;;;;;;;;;;;22.70;45.60;;;;;;5070544;28;19920;-65
2022/08/08 02:08:07;;;;;;;;;;;22.70;45.60;;;;;;5074174;28;20327;-65
2022/08/08 02:10:37;;;;;;;;;;;22.70;45.70;;;;;;5114203;27;19924;-64
2022/08/08 02:13:05;;;;;;;;;;;22.70;45.60;;;;;;5080488;28;19974;-65
2022/08/08 02:15:41;;;;;;;;;;;22.70;45.60;;;;;;5092519;28;20372;-65
2022/08/08 02:18:10;;;;;;;;;;;22.70;45.60;;;;;;5113966;27;20008;-65
2022/08/08 02:20:39;;;;;;;;;;;22.70;45.60;;;;;;5097100;28;19939;-65
2022/08/08 02:23:09;;;;;;;;;;;22.70;45.60;;;;;;5081943;28;19924;-65
2022/08/08 02:25:38;;;;;;;;;;;22.70;45.60;;;;;;5092464;28;19920;-66
2022/08/08 02:28:05;;;;;;;;;;;22.70;45.70;;;;;;5096232;28;19965;-65
2022/08/08 02:30:37;;;;;;;;;;;22.70;45.70;;;;;;5095296;28;20331;-65
2022/08/08 02:33:14;;;;;;;;;;;22.70;45.70;;;;;;5094525;28;20254;-65
2022/08/08 02:35:51;;;;;;;;;;;22.60;45.60;;;;;;5096865;28;19946;-64
2022/08/08 02:38:33;;;;;;;;;;;22.70;45.70;;;;;;5094912;28;19927;-65
2022/08/08 02:41:08;;;;;;;;;;;22.70;45.70;;;;;;5080162;28;20021;-65
2022/08/08 02:43:49;;;;;;;;;;;22.70;46.30;;;;;;5096755;28;19963;-65
2022/08/08 02:46:37;;;;;;;;;;;22.60;45.60;;;;;;5058394;28;20288;-65
2022/08/08 02:49:23;;;;;;;;;;;22.60;45.60;;;;;;5091140;28;19931;-64
2022/08/08 02:51:57;;;;;;;;;;;22.60;45.60;;;;;;5097804;28;19996;-64
2022/08/08 02:54:43;;;;;;;;;;;22.60;45.60;;;;;;5090579;28;19920;-64
2022/08/08 02:57:25;;;;;;;;;;;22.60;45.70;;;;;;5081078;28;19931;-65
2022/08/08 03:00:14;;;;;;;;;;;22.60;45.60;;;;;;5093612;28;19936;-65
2022/08/08 03:03:02;;;;;;;;;;;22.60;45.70;;;;;;5093731;28;19955;-64
2022/08/08 03:05:50;;;;;;;;;;;22.60;45.70;;;;;;5097937;28;20392;-65
2022/08/08 03:08:31;;;;;;;;;;;22.60;45.70;;;;;;5077860;28;19938;-64
2022/08/08 03:11:17;;;;;;;;;;;22.60;45.70;;;;;;5067845;28;19928;-64
2022/08/08 03:13:52;;;;;;;;;;;22.60;45.70;;;;;;5096371;28;19919;-65
2022/08/08 03:16:26;;;;;;;;;;;22.60;45.70;;;;;;5076669;28;19965;-65
2022/08/08 03:19:00;;;;;;;;;;;22.60;45.70;;;;;;5079502;28;19928;-64
2022/08/08 03:21:26;;;;;;;;;;;22.60;45.70;;;;;;5095357;28;19923;-64
2022/08/08 03:23:54;;;;;;;;;;;22.60;45.70;;;;;;5103936;28;20388;-64
2022/08/08 03:26:22;;;;;;;;;;;22.60;45.80;;;;;;5087290;28;19924;-64
2022/08/08 03:28:50;;;;;;;;;;;22.60;45.80;;;;;;5102809;28;20380;-64
2022/08/08 03:34:04;;;;;;;;;;;22.60;46.40;;;;;;5115670;27;19924;-64
2022/08/08 03:36:31;;;;;;;;;;;22.60;45.80;;;;;;5114996;27;20030;-64
2022/08/08 03:38:59;;;;;;;;;;;22.60;45.80;;;;;;5102077;28;19967;-64
2022/08/08 03:41:30;;;;;;;;;;;22.60;45.80;;;;;;5084164;28;19973;-64
2022/08/08 03:43:57;;;;;;;;;;;22.60;45.80;;;;;;5102604;28;20006;-64
2022/08/08 03:46:26;;;;;;;;;;;22.60;45.90;;;;;;5084748;28;19919;-65
2022/08/08 03:48:56;;;;;;;;;;;22.60;45.90;;;;;;5116307;27;19920;-64
2022/08/08 03:51:23;;;;;;;;;;;22.60;45.90;;;;;;5100468;28;19920;-64
2022/08/08 03:53:50;;;;;;;;;;;22.60;45.90;;;;;;5103061;28;20015;-63
2022/08/08 03:56:18;;;;;;;;;;;22.60;45.90;;;;;;5101884;28;19936;-64
2022/08/08 03:58:47;;;;;;;;;;;22.60;46.00;;;;;;5099600;28;20276;-65
2022/08/08 04:01:14;;;;;;;;;;;22.60;46.00;;;;;;5115387;27;19949;-64
2022/08/08 04:03:41;;;;;;;;;;;22.60;46.00;;;;;;5119167;27;19951;-64
2022/08/08 04:06:08;;;;;;;;;;;22.60;46.00;;;;;;5084479;28;19920;-64
2022/08/08 04:08:35;;;;;;;;;;;22.60;46.10;;;;;;5100455;28;19938;-64
2022/08/08 04:11:02;;;;;;;;;;;22.60;46.10;;;;;;5083705;28;19931;-64
2022/08/08 04:13:30;;;;;;;;;;;22.60;46.10;;;;;;5097245;28;19978;-65
2022/08/08 04:15:57;;;;;;;;;;;22.60;46.70;;;;;;5098090;28;19932;-65
2022/08/08 04:18:24;;;;;;;;;;;22.50;46.00;;;;;;5099702;28;19924;-65
2022/08/08 04:20:51;;;;;;;;;;;22.50;46.10;;;;;;5086293;28;19919;-64
2022/08/08 04:23:17;;;;;;;;;;;22.50;46.10;;;;;;5101001;28;20311;-64
2022/08/08 04:25:44;;;;;;;;;;;22.50;46.10;;;;;;5082786;28;19920;-64
2022/08/08 04:28:11;;;;;;;;;;;22.50;46.10;;;;;;5084082;28;19974;-65
2022/08/08 04:30:39;;;;;;;;;;;22.50;46.10;;;;;;5099130;28;19975;-64
2022/08/08 04:33:06;;;;;;;;;;;22.50;46.20;;;;;;5082985;28;19920;-65
2022/08/08 04:35:33;;;;;;;;;;;22.50;46.20;;;;;;5083611;28;19928;-64
2022/08/08 04:37:59;;;;;;;;;;;22.50;46.30;;;;;;5099916;28;20285;-64
2022/08/08 04:40:26;;;;;;;;;;;22.50;46.30;;;;;;5079310;28;19920;-65
2022/08/08 04:42:53;;;;;;;;;;;22.50;46.30;;;;;;5099404;28;19923;-64
2022/08/08 04:45:19;;;;;;;;;;;22.50;46.40;;;;;;5080432;28;19932;-63
2022/08/08 04:47:48;;;;;;;;;;;22.50;46.40;;;;;;5098722;28;20454;-64
2022/08/08 04:50:15;;;;;;;;;;;22.50;46.40;;;;;;5100043;28;19951;-64
2022/08/08 04:52:41;;;;;;;;;;;22.50;46.40;;;;;;5097817;28;19974;-64
2022/08/08 04:55:08;;;;;;;;;;;22.50;46.50;;;;;;5098249;28;20266;-64
2022/08/08 04:57:35;;;;;;;;;;;22.50;46.50;;;;;;5091083;28;19920;-65
2022/08/08 05:00:02;;;;;;;;;;;22.50;46.60;;;;;;5094969;28;19926;-64
2022/08/08 05:02:29;;;;;;;;;;;22.50;46.60;;;;;;5096767;28;19935;-64
2022/08/08 05:04:57;;;;;;;;;;;22.50;46.70;;;;;;5083847;28;20441;-65
2022/08/08 05:07:24;;;;;;;;;;;22.50;46.70;;;;;;5098271;28;19920;-65
2022/08/08 05:09:50;;;;;;;;;;;22.50;46.70;;;;;;5082916;28;19931;-65
2022/08/08 05:12:17;;;;;;;;;;;22.50;47.40;;;;;;5100328;28;19932;-65
2022/08/08 05:14:44;;;;;;;;;;;22.50;46.80;;;;;;5098346;28;20365;-65
2022/08/08 05:17:11;;;;;;;;;;;22.50;46.90;;;;;;5076139;28;19920;-65
2022/08/08 05:19:38;;;;;;;;;;;22.50;46.90;;;;;;5080397;28;19924;-65
2022/08/08 05:22:07;;;;;;;;;;;22.50;47.00;;;;;;5100124;28;19970;-65
2022/08/08 05:24:33;;;;;;;;;;;22.50;47.00;;;;;;5081801;28;19920;-64
2022/08/08 05:27:00;;;;;;;;;;;22.50;47.00;;;;;;5095907;28;19927;-66
2022/08/08 05:29:27;;;;;;;;;;;22.50;47.00;;;;;;5101578;28;20353;-64
2022/08/08 05:31:54;;;;;;;;;;;22.50;47.00;;;;;;5116497;27;19977;-64
2022/08/08 05:34:30;;;;;;;;;;;22.50;47.00;;;;;;5100271;28;20358;-64
2022/08/08 05:36:57;;;;;;;;;;;22.50;47.00;;;;;;5100047;28;20332;-65
2022/08/08 05:39:25;;;;;;;;;;;22.50;47.00;;;;;;5097942;28;20012;-64
2022/08/08 05:41:52;;;;;;;;;;;22.50;47.00;;;;;;5084192;28;19927;-64
2022/08/08 05:44:19;;;;;;;;;;;22.50;47.10;;;;;;5098955;28;19932;-64
2022/08/08 05:46:46;;;;;;;;;;;22.50;47.10;;;;;;5085766;28;19955;-65
2022/08/08 05:49:13;;;;;;;;;;;22.50;47.10;;;;;;5097850;28;19973;-64
2022/08/08 05:51:40;;;;;;;;;;;22.50;47.10;;;;;;5079317;28;19920;-65
2022/08/08 05:54:07;;;;;;;;;;;22.50;47.10;;;;;;5081298;28;19932;-64
2022/08/08 05:56:37;;;;;;;;;;;22.50;47.10;;;;;;5091965;28;19939;-64
2022/08/08 05:59:04;;;;;;;;;;;22.50;47.20;;;;;;5099454;28;19943;-64
2022/08/08 06:01:31;;;;;;;;;;;22.50;47.20;;;;;;5080393;28;19986;-65
2022/08/08 06:04:00;;;;;;;;;;;22.50;47.20;;;;;;5095535;28;19967;-64
2022/08/08 06:06:27;;;;;;;;;;;22.50;47.20;;;;;;5092419;28;21217;-65
2022/08/08 06:08:54;;;;;;;;;;;22.50;47.20;;;;;;5093440;28;19920;-65
2022/08/08 06:11:21;;;;;;;;;;;22.50;47.20;;;;;;5074309;28;19973;-64
2022/08/08 06:13:49;;;;;;;;;;;22.50;47.30;;;;;;5091447;28;19924;-64
2022/08/08 06:16:16;;;;;;;;;;;22.50;47.20;;;;;;5074257;28;19931;-65
2022/08/08 06:18:42;;;;;;;;;;;22.50;47.20;;;;;;5096191;28;19924;-64
2022/08/08 06:21:09;;;;;;;;;;;22.50;47.20;;;;;;5094887;28;19966;-64
2022/08/08 06:23:36;;;;;;;;;;;22.50;47.20;;;;;;5090169;28;20019;-65
2022/08/08 06:26:04;;;;;;;;;;;22.50;47.30;;;;;;5073803;28;19932;-64
2022/08/08 06:28:31;;;;;;;;;;;22.50;47.30;;;;;;5091328;28;19971;-65
2022/08/08 06:31:01;;;;;;;;;;;22.50;47.30;;;;;;5073942;28;20324;-65
2022/08/08 06:33:29;;;;;;;;;;;22.50;47.30;;;;;;5077345;28;19924;-64
2022/08/08 06:35:56;;;;;;;;;;;22.50;47.30;;;;;;5070795;28;19924;-64
2022/08/08 06:38:22;;;;;;;;;;;22.50;47.30;;;;;;5072795;28;20389;-64
2022/08/08 06:40:50;;;;;;;;;;;22.50;47.20;;;;;;5052621;28;19932;-64
2022/08/08 06:43:18;;;;;;;;;;;22.50;47.20;;;;;;5071026;28;19979;-65
2022/08/08 06:45:45;;;;;;;;;;;22.50;47.30;;;;;;5053908;28;19935;-65
2022/08/08 06:48:13;;;;;;;;;;;22.50;47.20;;;;;;5067350;28;19943;-66
2022/08/08 06:50:39;;;;;;;;;;;22.50;47.30;;;;;;5073782;28;19924;-64
2022/08/08 06:53:07;;;;;;;;;;;22.50;47.20;;;;;;5070938;28;20227;-65
2022/08/08 06:55:34;;;;;;;;;;;22.50;47.30;;;;;;5043871;28;19938;-65
2022/08/08 06:58:00;;;;;;;;;;;22.50;47.20;;;;;;5050188;28;19933;-64
2022/08/08 07:00:27;;;;;;;;;;;22.50;47.20;;;;;;5062734;28;19927;-65
2022/08/08 07:02:54;;;;;;;;;;;22.50;47.20;;;;;;5049838;28;19928;-65
2022/08/08 07:05:23;;;;;;;;;;;22.50;47.20;;;;;;5040064;28;19924;-65
2022/08/08 07:07:56;;;;;;;;;;;22.50;47.20;;;;;;5062079;28;19975;-65
2022/08/08 07:10:23;;;;;;;;;;;22.50;47.20;;;;;;5072742;28;20027;-65
2022/08/08 07:12:51;;;;;;;;;;;22.50;47.20;;;;;;5086771;28;19920;-64
2022/08/08 07:15:18;;;;;;;;;;;22.50;47.30;;;;;;5076381;28;20021;-65
2022/08/08 07:17:46;;;;;;;;;;;22.50;47.20;;;;;;5071231;28;20051;-65
2022/08/08 07:20:15;;;;;;;;;;;22.50;47.30;;;;;;5068741;28;20007;-64
2022/08/08 07:22:45;;;;;;;;;;;22.50;47.30;;;;;;5071089;28;19974;-64
2022/08/08 07:25:12;;;;;;;;;;;22.50;47.30;;;;;;5074789;28;20014;-66
2022/08/08 07:27:41;;;;;;;;;;;22.60;47.40;;;;;;5084529;28;19924;-65
2022/08/08 07:30:08;;;;;;;;;;;22.60;47.40;;;;;;5112645;28;20280;-65
2022/08/08 07:32:35;;;;;;;;;;;22.60;47.40;;;;;;5109515;28;20334;-65
2022/08/08 07:35:02;;;;;;;;;;;22.50;47.30;;;;;;5114817;28;20311;-65
2022/08/08 07:37:28;;;;;;;;;;;22.60;47.40;;;;;;5095111;28;19920;-65
2022/08/08 07:39:57;;;;;;;;;;;22.60;47.40;;;;;;5091972;28;19924;-65
2022/08/08 07:42:24;;;;;;;;;;;22.60;47.40;;;;;;5089822;28;20062;-64
2022/08/08 07:44:51;;;;;;;;;;;22.60;47.40;;;;;;5072221;28;20711;-65
2022/08/08 07:47:18;;;;;;;;;;;22.60;47.40;;;;;;5108317;28;19982;-65
2022/08/08 07:49:45;;;;;;;;;;;22.60;47.40;;;;;;5093429;28;19926;-65
2022/08/08 07:52:12;;;;;;;;;;;22.60;47.40;;;;;;5099601;28;19931;-65
2022/08/08 07:54:40;;;;;;;;;;;22.60;47.40;;;;;;5092882;28;19931;-66
2022/08/08 07:57:12;;;;;;;;;;;22.60;47.40;;;;;;5086327;28;19928;-65
2022/08/08 07:59:40;;;;;;;;;;;22.60;47.40;;;;;;5113045;28;19920;-65
2022/08/08 08:02:07;;;;;;;;;;;22.70;47.40;;;;;;5094517;28;19919;-65
2022/08/08 08:04:34;;;;;;;;;;;22.70;47.30;;;;;;5071980;28;19924;-64
2022/08/08 08:07:01;;;;;;;;;;;22.70;47.30;;;;;;5091163;28;19920;-65
2022/08/08 08:09:29;;;;;;;;;;;22.70;47.30;;;;;;5087853;28;20351;-65
2022/08/08 08:11:55;;;;;;;;;;;22.70;47.20;;;;;;5096589;28;20388;-65
2022/08/08 08:14:26;;;;;;;;;;;22.70;47.20;;;;;;5111859;27;19952;-64
2022/08/08 08:16:53;;;;;;;;;;;22.70;47.20;;;;;;5094640;28;20369;-64
2022/08/08 08:19:21;;;;;;;;;;;22.70;47.10;;;;;;5101120;28;19981;-65
2022/08/08 08:21:48;;;;;;;;;;;22.70;47.10;;;;;;5091557;28;19988;-65
2022/08/08 08:24:15;;;;;;;;;;;22.70;47.10;;;;;;5077331;28;19924;-66
2022/08/08 08:26:42;;;;;;;;;;;22.70;47.00;;;;;;5067305;28;19920;-65
2022/08/08 08:29:09;;;;;;;;;;;22.70;47.10;;;;;;5109136;27;19951;-64
2022/08/08 08:31:37;;;;;;;;;;;22.70;47.00;;;;;;5095938;28;19920;-65
2022/08/08 08:34:04;;;;;;;;;;;22.70;47.00;;;;;;5091559;28;19928;-65
2022/08/08 08:36:30;;;;;;;;;;;22.70;46.90;;;;;;5090993;28;19926;-64
2022/08/08 08:38:57;;;;;;;;;;;22.70;47.50;;;;;;5080432;28;20379;-64
2022/08/08 08:41:24;;;;;;;;;;;22.70;46.90;;;;;;5076390;28;19928;-65
2022/08/08 08:43:51;;;;;;;;;;;22.70;46.90;;;;;;5096011;28;19966;-64
2022/08/08 08:46:17;;;;;;;;;;;22.70;46.90;;;;;;5093526;28;19924;-66
2022/08/08 08:48:45;;;;;;;;;;;22.70;46.90;;;;;;5092981;28;19920;-64
2022/08/08 08:51:12;;;;;;;;;;;22.80;46.90;;;;;;5081390;28;19927;-65
2022/08/08 08:53:42;;;;;;;;;;;22.70;46.80;;;;;;5075268;28;19967;-65
2022/08/08 08:56:08;;;;;;;;;;;22.80;46.90;;;;;;5088910;28;19931;-65
2022/08/08 08:58:38;;;;;;;;;;;22.70;46.80;;;;;;5084379;28;20357;-65
2022/08/08 09:01:05;;;;;;;;;;;22.80;46.80;;;;;;5074719;28;20303;-64
2022/08/08 09:03:32;;;;;;;;;;;22.80;46.90;;;;;;5093052;28;19955;-64
2022/08/08 09:06:00;;;;;;;;;;;22.80;46.80;;;;;;5097008;28;20022;-65
2022/08/08 09:08:27;;;;;;;;;;;22.80;46.80;;;;;;5105626;27;19927;-64
2022/08/08 09:10:53;;;;;;;;;;;22.80;46.80;;;;;;5071926;28;19919;-65
2022/08/08 09:13:21;;;;;;;;;;;22.80;46.80;;;;;;5092806;28;20407;-65
2022/08/08 09:15:47;;;;;;;;;;;22.80;46.80;;;;;;5073957;28;19939;-65
2022/08/08 09:18:16;;;;;;;;;;;22.80;46.80;;;;;;5098285;28;20369;-65
2022/08/08 09:20:43;;;;;;;;;;;22.80;46.80;;;;;;5083596;28;19920;-65
2022/08/08 09:23:12;;;;;;;;;;;22.80;46.80;;;;;;5099043;28;19932;-65
2022/08/08 09:25:38;;;;;;;;;;;22.80;46.80;;;;;;5100945;28;19920;-65
2022/08/08 09:28:05;;;;;;;;;;;22.80;46.80;;;;;;5092171;28;19931;-64
2022/08/08 09:30:32;;;;;;;;;;;22.80;46.80;;;;;;5112741;27;20262;-65
2022/08/08 09:33:02;;;;;;;;;;;22.80;46.80;;;;;;5109680;27;19919;-65
2022/08/08 09:35:29;;;;;;;;;;;22.80;46.80;;;;;;5078134;28;20423;-65
2022/08/08 09:37:56;;;;;;;;;;;22.80;46.80;;;;;;5074628;28;19974;-65
2022/08/08 09:40:25;;;;;;;;;;;22.80;47.40;;;;;;5093503;28;19947;-66
2022/08/08 09:42:55;;;;;;;;;;;22.90;46.90;;;;;;5096898;28;19946;-65
2022/08/08 09:45:23;;;;;;;;;;;22.90;46.90;;;;;;5077283;28;19924;-66
2022/08/08 09:47:50;;;;;;;;;;;22.90;46.90;;;;;;5099066;28;19974;-65
2022/08/08 09:50:17;;;;;;;;;;;22.80;46.80;;;;;;5091728;28;19974;-65
2022/08/08 09:52:48;;;;;;;;;;;22.80;46.80;;;;;;5097208;28;20027;-65
2022/08/08 09:55:15;;;;;;;;;;;22.90;46.90;;;;;;5096237;28;20278;-64
2022/08/08 09:57:45;;;;;;;;;;;22.90;46.80;;;;;;5082385;28;19927;-66
2022/08/08 10:00:12;;;;;;;;;;;22.90;46.80;;;;;;5079304;28;19920;-66
2022/08/08 10:02:40;;;;;;;;;;;22.90;46.80;;;;;;5094212;28;19948;-65
2022/08/08 10:05:08;;;;;;;;;;;22.90;46.80;;;;;;5097691;28;19927;-64
2022/08/08 10:07:34;;;;;;;;;;;22.90;46.80;;;;;;5087414;28;19935;-63
2022/08/08 10:10:01;;;;;;;;;;;22.90;46.80;;;;;;5072724;28;20340;-64
2022/08/08 10:12:32;;;;;;;;;;;22.90;46.80;;;;;;5077833;28;19942;-66
2022/08/08 10:15:01;;;;;;;;;;;22.90;46.80;;;;;;5078940;28;19928;-65
2022/08/08 10:17:30;;;;;;;;;;;22.90;46.80;;;;;;5107564;27;20190;-65
2022/08/08 10:19:58;;;;;;;;;;;22.90;46.80;;;;;;5091693;28;20353;-65
2022/08/08 10:22:24;;;;;;;;;;;22.90;46.80;;;;;;5088443;28;19920;-64
2022/08/08 10:24:51;;;;;;;;;;;22.90;46.80;;;;;;5109787;27;20027;-65
2022/08/08 10:27:18;;;;;;;;;;;23.00;46.80;;;;;;5089818;28;20003;-65
2022/08/08 10:29:47;;;;;;;;;;;22.90;46.70;;;;;;5080038;28;20432;-65
2022/08/08 10:32:34;;;;;;;;;;;23.00;46.70;;;;;;5073787;28;20373;-66
2022/08/08 10:35:01;;;;;;;;;;;23.00;46.70;;;;;;5069171;28;19924;-66
2022/08/08 10:37:28;;;;;;;;;;;23.00;46.70;;;;;;5096976;28;20394;-66
2022/08/08 10:39:55;;;;;;;;;;;23.00;46.70;;;;;;5096674;28;20023;-66
2022/08/08 10:42:22;;;;;;;;;;;23.00;46.70;;;;;;5072671;28;19970;-66
2022/08/08 10:44:49;;;;;;;;;;;23.00;46.70;;;;;;5095129;28;20399;-66
2022/08/08 10:47:18;;;;;;;;;;;23.00;46.70;;;;;;5090326;28;19924;-66
2022/08/08 10:49:49;;;;;;;;;;;23.00;46.70;;;;;;5076679;28;19920;-64
2022/08/08 10:52:22;;;;;;;;;;;23.00;46.80;;;;;;5091695;28;19927;-64
2022/08/08 10:54:52;;;;;;;;;;;23.00;46.80;;;;;;5091108;28;19931;-64
2022/08/08 10:57:18;;;;;;;;;;;23.00;46.80;;;;;;5083139;28;19928;-64
2022/08/08 10:59:50;;;;;;;;;;;23.00;46.80;;;;;;5100504;28;19953;-64
2022/08/08 11:02:24;;;;;;;;;;;23.00;46.90;;;;;;5076819;28;19927;-64
2022/08/08 11:04:50;;;;;;;;;;;23.00;46.90;;;;;;5073550;28;19920;-64
2022/08/08 11:07:27;;;;;;;;;;;23.00;46.90;;;;;;5083408;28;19982;-66
2022/08/08 11:09:53;;;;;;;;;;;23.00;46.90;;;;;;5073679;28;19920;-64
2022/08/08 11:12:20;;;;;;;;;;;23.00;47.00;;;;;;5090814;28;19919;-64
2022/08/08 11:14:55;;;;;;;;;;;23.00;47.00;;;;;;5074826;28;19970;-65
2022/08/08 11:17:22;;;;;;;;;;;23.10;47.10;;;;;;5086265;28;19920;-64
2022/08/08 11:19:51;;;;;;;;;;;23.00;47.00;;;;;;5091338;28;20006;-65
2022/08/08 11:22:18;;;;;;;;;;;23.10;47.20;;;;;;5087091;28;20250;-64
2022/08/08 11:24:44;;;;;;;;;;;23.10;47.20;;;;;;5085816;28;19930;-64
2022/08/08 11:27:11;;;;;;;;;;;23.00;47.10;;;;;;5106939;28;20377;-65
2022/08/08 11:29:38;;;;;;;;;;;23.00;47.10;;;;;;5101708;27;19929;-64
2022/08/08 11:32:05;;;;;;;;;;;23.10;47.20;;;;;;5072472;28;19924;-65
2022/08/08 11:34:32;;;;;;;;;;;23.10;47.20;;;;;;5076071;28;20420;-64
2022/08/08 11:37:01;;;;;;;;;;;23.10;47.10;;;;;;5092147;28;20053;-65
2022/08/08 11:39:28;;;;;;;;;;;23.00;47.10;;;;;;5106786;28;20347;-65
2022/08/08 11:41:55;;;;;;;;;;;23.10;47.10;;;;;;5093509;28;19974;-64
2022/08/08 11:44:22;;;;;;;;;;;23.00;47.10;;;;;;5088963;28;19982;-63
2022/08/08 11:46:56;;;;;;;;;;;23.10;47.10;;;;;;5102517;28;19920;-63
2022/08/08 11:49:23;;;;;;;;;;;23.10;47.20;;;;;;5075406;28;19932;-63
2022/08/08 11:51:50;;;;;;;;;;;23.10;47.20;;;;;;5080094;28;19927;-64
2022/08/08 11:54:18;;;;;;;;;;;23.10;47.20;;;;;;5095991;28;19928;-64
2022/08/08 11:56:45;;;;;;;;;;;23.10;47.20;;;;;;5082387;28;19932;-63
2022/08/08 11:59:11;;;;;;;;;;;23.10;47.20;;;;;;5074228;28;19940;-64
2022/08/08 12:01:38;;;;;;;;;;;23.10;47.10;;;;;;5084731;28;19920;-64
2022/08/08 12:04:05;;;;;;;;;;;23.10;47.10;;;;;;5091573;28;19921;-64
2022/08/08 12:06:32;;;;;;;;;;;23.10;47.20;;;;;;5091884;28;20384;-65
2022/08/08 12:09:05;;;;;;;;;;;23.10;47.10;;;;;;5078919;28;20011;-64
2022/08/08 12:11:39;;;;;;;;;;;23.10;47.10;;;;;;5092468;28;19927;-64
2022/08/08 12:14:05;;;;;;;;;;;23.10;47.10;;;;;;5090802;28;19924;-63
2022/08/08 12:16:32;;;;;;;;;;;23.10;47.10;;;;;;5090960;28;20385;-63
2022/08/08 12:18:59;;;;;;;;;;;23.10;47.10;;;;;;5112001;27;20311;-63
2022/08/08 12:21:26;;;;;;;;;;;23.10;47.10;;;;;;5084018;28;19977;-63
2022/08/08 12:24:03;;;;;;;;;;;23.10;47.10;;;;;;5078353;28;19921;-64
2022/08/08 12:26:35;;;;;;;;;;;23.10;47.10;;;;;;5106436;27;20356;-62
2022/08/08 12:29:03;;;;;;;;;;;23.10;47.10;;;;;;5083835;28;19924;-62
2022/08/08 12:31:33;;;;;;;;;;;23.20;47.10;;;;;;5081082;28;20036;-63
2022/08/08 12:34:00;;;;;;;;;;;23.10;47.00;;;;;;5081227;28;19920;-63
2022/08/08 12:36:38;;;;;;;;;;;23.10;47.00;;;;;;5112567;27;20002;-63
2022/08/08 12:39:04;;;;;;;;;;;23.10;47.00;;;;;;5091815;28;19932;-64
2022/08/08 12:41:34;;;;;;;;;;;23.10;47.00;;;;;;5074164;28;19925;-65
2022/08/08 12:44:05;;;;;;;;;;;23.20;47.10;;;;;;5100539;28;20007;-62
2022/08/08 12:46:32;;;;;;;;;;;23.10;46.90;;;;;;5077889;28;19936;-62
2022/08/08 12:49:00;;;;;;;;;;;23.10;46.90;;;;;;5096509;28;20007;-62
2022/08/08 12:51:27;;;;;;;;;;;23.20;47.00;;;;;;5096759;28;19929;-62
2022/08/08 12:53:57;;;;;;;;;;;23.10;46.90;;;;;;5077103;28;20009;-63
2022/08/08 12:56:31;;;;;;;;;;;23.20;47.00;;;;;;5093535;28;19935;-63
2022/08/08 12:58:58;;;;;;;;;;;23.20;47.00;;;;;;5077049;28;19920;-63
2022/08/08 13:01:36;;;;;;;;;;;23.20;47.00;;;;;;5078929;28;19932;-63
2022/08/08 13:04:11;;;;;;;;;;;23.20;46.90;;;;;;5090850;28;20414;-64
2022/08/08 13:06:38;;;;;;;;;;;23.20;46.90;;;;;;5099195;28;19927;-65
2022/08/08 13:09:07;;;;;;;;;;;23.20;46.90;;;;;;5096034;28;19924;-63
2022/08/08 13:11:34;;;;;;;;;;;23.20;46.90;;;;;;5070231;28;19978;-63
2022/08/08 13:14:06;;;;;;;;;;;23.20;46.80;;;;;;5086753;28;19927;-63
2022/08/08 13:16:34;;;;;;;;;;;23.20;46.80;;;;;;5077316;28;19930;-64
2022/08/08 13:19:03;;;;;;;;;;;23.20;46.80;;;;;;5076179;28;19963;-64
2022/08/08 13:21:30;;;;;;;;;;;23.20;46.80;;;;;;5071745;28;19926;-64
2022/08/08 13:23:57;;;;;;;;;;;23.20;46.70;;;;;;5096213;28;20018;-65
2022/08/08 13:26:23;;;;;;;;;;;23.20;46.70;;;;;;5094163;28;19936;-64
2022/08/08 13:28:51;;;;;;;;;;;23.20;46.80;;;;;;5093859;28;19919;-64
2022/08/08 13:31:17;;;;;;;;;;;23.20;46.70;;;;;;5095567;28;19967;-64
2022/08/08 13:33:45;;;;;;;;;;;23.20;46.70;;;;;;5077278;28;20006;-65
2022/08/08 13:36:13;;;;;;;;;;;23.30;46.80;;;;;;5094584;28;19979;-65
2022/08/08 13:38:40;;;;;;;;;;;23.20;46.70;;;;;;5095094;28;20015;-64
2022/08/08 13:41:07;;;;;;;;;;;23.20;46.80;;;;;;5076678;28;20377;-63
2022/08/08 13:43:34;;;;;;;;;;;23.30;46.80;;;;;;5092507;28;19993;-63
2022/08/08 13:46:10;;;;;;;;;;;23.30;46.80;;;;;;5096707;28;19927;-64
2022/08/08 13:48:43;;;;;;;;;;;23.30;46.80;;;;;;5095750;28;19930;-64
2022/08/08 13:51:10;;;;;;;;;;;23.30;46.80;;;;;;5094763;28;19919;-64
2022/08/08 13:53:39;;;;;;;;;;;23.30;46.80;;;;;;5094464;28;20043;-64
2022/08/08 13:56:07;;;;;;;;;;;23.30;46.80;;;;;;5088785;28;19921;-64
2022/08/08 13:58:34;;;;;;;;;;;23.30;46.80;;;;;;5093101;28;19928;-64
2022/08/08 14:01:10;;;;;;;;;;;23.30;46.80;;;;;;5074534;28;19931;-64
2022/08/08 14:03:37;;;;;;;;;;;23.30;46.80;;;;;;5091578;28;19971;-64
2022/08/08 14:06:08;;;;;;;;;;;23.30;46.70;;;;;;5091222;28;19920;-63
2022/08/08 14:08:40;;;;;;;;;;;23.30;46.80;;;;;;5091100;28;19932;-64
2022/08/08 14:11:06;;;;;;;;;;;23.30;46.70;;;;;;5091052;28;20014;-64
2022/08/08 14:13:33;;;;;;;;;;;23.30;46.70;;;;;;5089029;28;19975;-65
2022/08/08 14:16:03;;;;;;;;;;;23.30;46.70;;;;;;5092146;28;20349;-64
2022/08/08 14:18:30;;;;;;;;;;;23.30;46.70;;;;;;5094878;28;20340;-64
2022/08/08 14:21:03;;;;;;;;;;;23.30;46.70;;;;;;5076019;28;19924;-63
2022/08/08 14:23:40;;;;;;;;;;;23.30;47.20;;;;;;5076453;28;19927;-63
2022/08/08 14:26:07;;;;;;;;;;;23.30;46.60;;;;;;5076749;28;19924;-64
2022/08/08 14:28:34;;;;;;;;;;;23.30;46.60;;;;;;5083943;28;20268;-63
2022/08/08 14:31:08;;;;;;;;;;;23.40;47.20;;;;;;5081251;28;19924;-63
2022/08/08 14:33:34;;;;;;;;;;;23.30;46.50;;;;;;5079949;28;19983;-64